createdAt,value
2022-10-02T00:01:56.802Z,4.55
2022-10-02T00:07:04.054Z,4.57
2022-10-02T00:12:08.844Z,4.45
2022-10-02T00:17:33.548Z,4.18
2022-10-02T00:22:47.415Z,4.13
2022-10-02T00:28:16.453Z,5.00
2022-10-02T00:33:29.462Z,4.65
2022-10-02T00:38:49.412Z,4.75
2022-10-02T00:44:08.408Z,4.65
2022-10-02T00:49:40.342Z,4.70
2022-10-02T00:55:19.026Z,5.20
2022-10-02T01:00:23.041Z,4.22
2022-10-02T01:05:25.764Z,4.70
2022-10-02T01:10:28.531Z,4.50
2022-10-02T01:15:34.753Z,4.57
2022-10-02T01:20:42.162Z,5.07
2022-10-02T01:25:43.865Z,4.95
2022-10-02T01:30:50.701Z,5.97
2022-10-02T01:35:52.504Z,4.70
2022-10-02T01:40:54.083Z,4.72
2022-10-02T01:46:31.936Z,5.00
2022-10-02T01:51:56.427Z,4.70
2022-10-02T01:57:10.495Z,4.95
2022-10-02T02:02:26.517Z,5.28
2022-10-02T02:07:43.936Z,5.43
2022-10-02T02:13:07.940Z,5.68
2022-10-02T02:18:35.684Z,4.90
2022-10-02T02:23:40.372Z,5.18
2022-10-02T02:28:47.086Z,4.25
2022-10-02T02:33:55.364Z,4.38
2022-10-02T02:39:03.241Z,5.35
2022-10-02T02:44:13.223Z,4.70
2022-10-02T02:49:14.948Z,5.00
2022-10-02T02:54:26.296Z,5.15
2022-10-02T02:59:32.646Z,5.25
2022-10-02T03:04:34.212Z,5.50
2022-10-02T03:09:37.834Z,5.20
2022-10-02T03:15:09.054Z,5.50
2022-10-02T03:20:24.194Z,5.10
2022-10-02T03:25:31.831Z,4.80
2022-10-02T03:30:35.477Z,5.40
2022-10-02T03:35:38.334Z,5.32
2022-10-02T03:40:40.303Z,5.68
2022-10-02T03:45:57.016Z,5.78
2022-10-02T03:50:59.094Z,5.90
2022-10-02T03:56:13.530Z,5.68
2022-10-02T04:01:27.225Z,6.00
2022-10-02T04:06:37.115Z,6.10
2022-10-02T04:11:43.846Z,5.20
2022-10-02T04:16:57.608Z,5.38
2022-10-02T04:22:14.516Z,5.13
2022-10-02T04:27:26.518Z,5.00
2022-10-02T04:32:32.217Z,6.25
2022-10-02T04:38:15.563Z,5.45
2022-10-02T04:43:31.648Z,5.95
2022-10-02T04:49:05.627Z,5.60
2022-10-02T04:54:25.767Z,6.15
2022-10-02T04:59:44.211Z,5.38
2022-10-02T05:05:24.346Z,5.85
2022-10-02T05:10:47.634Z,6.03
2022-10-02T05:16:15.698Z,6.35
2022-10-02T05:21:54.388Z,6.03
2022-10-02T05:27:11.161Z,6.25
2022-10-02T05:32:37.605Z,6.13
2022-10-02T05:38:22.544Z,5.47
2022-10-02T05:43:48.887Z,7.07
2022-10-02T05:49:17.578Z,6.20
2022-10-02T05:54:40.011Z,7.13
2022-10-02T05:59:45.974Z,6.40
2022-10-02T06:04:57.347Z,6.40
2022-10-02T06:10:16.130Z,6.68
2022-10-02T06:15:34.361Z,6.50
2022-10-02T06:20:48.899Z,6.60
2022-10-02T06:25:53.593Z,6.93
2022-10-02T06:31:21.323Z,7.90
2022-10-02T06:36:35.210Z,7.53
2022-10-02T06:41:47.357Z,7.03
2022-10-02T06:47:16.515Z,6.80
2022-10-02T06:52:26.157Z,6.72
2022-10-02T06:57:52.509Z,7.25
2022-10-02T07:03:27.199Z,6.43
2022-10-02T07:08:52.923Z,6.93
2022-10-02T07:14:16.533Z,5.78
2022-10-02T07:19:38.832Z,5.65
2022-10-02T07:25:14.016Z,5.70
2022-10-02T07:30:17.878Z,5.65
2022-10-02T07:35:48.763Z,5.47
2022-10-02T07:41:02.455Z,5.55
2022-10-02T07:46:41.983Z,5.15
2022-10-02T07:51:58.065Z,4.75
2022-10-02T07:57:10.302Z,5.47
2022-10-02T08:02:25.077Z,5.07
2022-10-02T08:07:28.656Z,5.40
2022-10-02T08:12:56.657Z,5.10
2022-10-02T08:18:22.916Z,5.50
2022-10-02T08:23:44.352Z,5.68
2022-10-02T08:29:11.939Z,6.38
2022-10-02T08:34:17.010Z,5.93
2022-10-02T08:39:37.309Z,6.00
2022-10-02T08:44:51.080Z,5.72
2022-10-02T08:50:30.054Z,5.63
2022-10-02T08:56:05.285Z,5.40
2022-10-02T09:01:09.940Z,5.65
2022-10-02T09:06:30.585Z,6.07
2022-10-02T09:11:37.267Z,5.50
2022-10-02T09:16:47.644Z,5.57
2022-10-02T09:21:56.149Z,5.90
2022-10-02T09:27:26.034Z,5.93
2022-10-02T09:32:34.648Z,5.78
2022-10-02T09:37:51.874Z,5.60
2022-10-02T09:43:35.631Z,5.13
2022-10-02T09:49:02.891Z,4.70
2022-10-02T09:54:29.565Z,4.82
2022-10-02T09:59:46.356Z,4.97
2022-10-02T10:05:34.626Z,5.75
2022-10-02T10:10:43.308Z,5.45
2022-10-02T10:16:03.105Z,6.03
2022-10-02T10:21:14.628Z,6.30
2022-10-02T10:26:52.144Z,6.00
2022-10-02T10:32:15.573Z,6.25
2022-10-02T10:38:11.261Z,6.50
2022-10-02T10:43:43.152Z,6.47
2022-10-02T10:49:15.463Z,5.35
2022-10-02T10:54:22.953Z,4.47
2022-10-02T10:59:42.323Z,4.40
2022-10-02T11:05:15.516Z,4.07
2022-10-02T11:10:54.296Z,3.80
2022-10-02T11:16:09.038Z,3.58
2022-10-02T11:21:22.732Z,3.00
2022-10-02T11:26:47.970Z,3.70
2022-10-02T11:32:19.364Z,3.58
2022-10-02T11:37:37.792Z,2.90
2022-10-02T11:43:00.975Z,2.85
2022-10-02T11:48:39.074Z,2.90
2022-10-02T11:54:01.896Z,3.38
2022-10-02T11:59:18.783Z,2.70
2022-10-02T12:04:55.013Z,3.13
2022-10-02T12:10:39.436Z,3.42
2022-10-02T12:15:46.857Z,4.15
2022-10-02T12:21:25.444Z,4.45
2022-10-02T12:26:48.651Z,4.53
2022-10-02T12:32:08.203Z,4.60
2022-10-02T12:37:15.723Z,5.28
2022-10-02T12:42:26.629Z,5.72
2022-10-02T12:47:49.879Z,6.45
2022-10-02T12:53:29.732Z,7.10
2022-10-02T12:58:42.518Z,7.25
2022-10-02T13:03:59.333Z,6.68
2022-10-02T13:09:17.993Z,6.13
2022-10-02T13:14:37.822Z,6.90
2022-10-02T13:19:42.327Z,7.60
2022-10-02T13:24:58.354Z,8.00
2022-10-02T13:30:06.640Z,7.50
2022-10-02T13:35:44.385Z,7.65
2022-10-02T13:40:46.182Z,7.78
2022-10-02T13:46:17.418Z,7.88
2022-10-02T13:51:36.161Z,6.95
2022-10-02T13:57:14.723Z,6.55
2022-10-02T14:03:00.148Z,7.85
2022-10-02T14:08:23.133Z,6.97
2022-10-02T14:13:36.178Z,6.60
2022-10-02T14:19:19.152Z,6.22
2022-10-02T14:24:51.835Z,6.82
2022-10-02T14:30:10.138Z,6.00
2022-10-02T14:35:46.263Z,6.13
2022-10-02T14:40:50.747Z,6.85
2022-10-02T14:46:04.741Z,6.30
2022-10-02T14:51:36.765Z,6.93
2022-10-02T14:57:20.107Z,6.78
2022-10-02T15:02:21.875Z,7.20
2022-10-02T15:07:28.243Z,6.75
2022-10-02T15:12:35.810Z,6.55
2022-10-02T15:17:57.473Z,7.03
2022-10-02T15:23:01.958Z,7.05
2022-10-02T15:28:37.335Z,6.32
2022-10-02T15:34:11.113Z,6.53
2022-10-02T15:39:18.850Z,7.43
2022-10-02T15:44:39.102Z,6.95
2022-10-02T15:49:53.276Z,6.95
2022-10-02T15:55:07.941Z,6.35
2022-10-02T16:00:16.873Z,6.57
2022-10-02T16:05:38.859Z,5.53
2022-10-02T16:11:07.016Z,5.60
2022-10-02T16:16:32.055Z,5.15
2022-10-02T16:28:08.039Z,5.40
2022-10-02T16:33:45.760Z,5.90
2022-10-02T16:38:56.337Z,5.70
2022-10-02T16:44:47.171Z,6.22
2022-10-02T16:50:10.529Z,7.85
2022-10-02T16:55:30.816Z,6.93
2022-10-02T17:00:39.606Z,7.07
2022-10-02T17:06:14.047Z,5.95
2022-10-02T17:11:22.710Z,5.40
2022-10-02T17:16:55.921Z,5.97
2022-10-02T17:22:13.737Z,6.50
2022-10-02T17:27:47.262Z,5.63
2022-10-02T17:33:16.009Z,6.28
2022-10-02T17:38:29.756Z,5.03
2022-10-02T17:43:37.264Z,6.78
2022-10-02T17:48:52.115Z,6.65
2022-10-02T17:54:41.935Z,7.70
2022-10-02T18:00:08.733Z,7.82
2022-10-02T18:05:34.430Z,7.28
2022-10-02T18:10:57.315Z,6.55
2022-10-02T18:16:22.223Z,6.85
2022-10-02T18:21:39.300Z,7.25
2022-10-02T18:26:59.676Z,8.27
2022-10-02T18:32:12.880Z,7.82
2022-10-02T18:37:17.328Z,8.43
2022-10-02T18:43:02.274Z,7.90
2022-10-02T18:48:33.677Z,7.93
2022-10-02T18:54:19.858Z,8.05
2022-10-02T18:59:26.575Z,8.10
2022-10-02T19:04:28.120Z,7.82
2022-10-02T19:09:33.490Z,8.30
2022-10-02T19:14:41.183Z,8.23
2022-10-02T19:19:44.617Z,7.32
2022-10-02T19:24:49.612Z,7.50
2022-10-02T19:30:26.701Z,6.85
2022-10-02T19:35:38.693Z,6.35
2022-10-02T19:40:43.227Z,5.45
2022-10-02T19:45:56.569Z,5.93
2022-10-02T19:51:04.481Z,6.35
2022-10-02T19:56:24.249Z,6.07
2022-10-02T20:01:32.701Z,5.80
2022-10-02T20:06:39.728Z,6.03
2022-10-02T20:11:43.079Z,7.07
2022-10-02T20:17:03.537Z,7.35
2022-10-02T20:22:36.897Z,8.43
2022-10-02T20:27:47.163Z,7.93
2022-10-02T20:32:57.765Z,7.90
2022-10-02T20:38:02.964Z,7.13
2022-10-02T20:43:15.414Z,7.82
2022-10-02T20:49:09.736Z,6.63
2022-10-02T20:54:42.358Z,6.50
2022-10-02T21:00:15.890Z,5.93
2022-10-02T21:05:17.399Z,6.53
2022-10-02T21:10:40.593Z,5.95
2022-10-02T21:15:51.808Z,5.40
2022-10-02T21:21:31.145Z,4.90
2022-10-02T21:26:58.793Z,4.47
2022-10-02T21:32:28.817Z,4.68
2022-10-02T21:37:44.658Z,4.88
2022-10-02T21:43:15.216Z,4.75
2022-10-02T21:48:40.960Z,5.43
2022-10-02T21:54:12.874Z,4.93
2022-10-02T21:59:24.685Z,4.55
2022-10-02T22:04:39.326Z,4.80
2022-10-02T22:09:44.576Z,4.72
2022-10-02T22:14:53.987Z,4.45
2022-10-02T22:20:01.363Z,4.47
2022-10-02T22:25:18.286Z,4.97
2022-10-02T22:30:24.918Z,4.55
2022-10-02T22:35:45.151Z,4.65
2022-10-02T22:40:51.399Z,4.53
2022-10-02T22:46:05.324Z,3.97
2022-10-02T22:51:21.897Z,5.05
2022-10-02T22:56:51.594Z,4.57
2022-10-02T23:01:59.297Z,4.47
2022-10-02T23:07:13.044Z,4.80
2022-10-02T23:12:47.317Z,4.55
2022-10-02T23:18:19.241Z,4.40
2022-10-02T23:23:50.988Z,4.38
2022-10-02T23:29:14.355Z,4.40
2022-10-02T23:34:34.413Z,4.63
2022-10-02T23:39:58.573Z,4.22
2022-10-02T23:45:08.458Z,4.38
2022-10-02T23:51:02.896Z,4.65
2022-10-02T23:56:32.194Z,4.10
